Time;durP1;ratioP1;P1;durP2;ratioP2;P2;SDS_P1;SDS_P2;PMS_P1;PMS_P2;Temp;Humidity;BMP_temperature;BMP_pressure;BME280_temperature;BME280_humidity;BME280_pressure;Samples;Min_cycle;Max_cycle;Signal;HPM_P1;HPM_P2
2024/04/17 00:00:03;;;;;;;6.30;3.57;;;;;;;15.89;76.06;92140.41;570411;26;822;-72
2024/04/17 00:00:18;;;;;;;5.78;3.10;;;;;;;15.90;75.95;92146.66;570389;26;910;-72
2024/04/17 00:00:33;;;;;;;4.07;3.17;;;;;;;15.91;75.95;92150.91;570537;26;798;-72
2024/04/17 00:00:49;;;;;;;4.50;3.47;;;;;;;15.91;76.03;92150.91;570404;26;805;-72
2024/04/17 00:01:04;;;;;;;5.23;3.83;;;;;;;15.92;75.94;92152.34;570490;26;881;-72
2024/04/17 00:01:20;;;;;;;6.20;4.00;;;;;;;15.92;75.99;92150.28;570465;26;948;-72
2024/04/17 00:01:35;;;;;;;7.70;3.93;;;;;;;15.93;76.07;92148.25;570370;26;876;-72
2024/04/17 00:01:51;;;;;;;7.78;3.90;;;;;;;15.92;76.14;92149.56;570405;26;841;-72
2024/04/17 00:02:06;;;;;;;7.33;4.00;;;;;;;15.94;76.32;92146.88;570330;26;794;-72
2024/04/17 00:02:21;;;;;;;6.77;3.80;;;;;;;15.95;76.38;92151.13;570494;26;846;-72
2024/04/17 00:02:37;;;;;;;7.32;3.90;;;;;;;15.95;76.45;92148.34;570534;26;786;-72
2024/04/17 00:02:53;;;;;;;7.40;3.85;;;;;;;15.95;76.51;92151.13;570410;26;806;-72
2024/04/17 00:03:10;;;;;;;5.57;3.50;;;;;;;15.96;76.68;92149.06;570499;26;825;-72
2024/04/17 00:03:25;;;;;;;5.85;3.80;;;;;;;15.93;76.73;92145.44;570430;26;881;-72
2024/04/17 00:03:41;;;;;;;6.22;4.10;;;;;;;15.92;76.90;92144.00;570447;26;817;-72
2024/04/17 00:03:56;;;;;;;7.40;4.00;;;;;;;15.87;76.78;92136.78;570507;26;818;-72
2024/04/17 00:04:12;;;;;;;8.07;4.10;;;;;;;15.83;76.89;92133.78;570477;26;900;-72
2024/04/17 00:04:27;;;;;;;7.18;3.85;;;;;;;15.78;77.01;92140.47;570479;26;822;-72
2024/04/17 00:04:43;;;;;;;6.70;3.63;;;;;;;15.75;77.07;92130.56;570538;26;809;-72
2024/04/17 00:04:58;;;;;;;6.28;3.90;;;;;;;15.72;77.14;92132.50;570314;26;930;-72
2024/04/17 00:05:13;;;;;;;5.93;4.03;;;;;;;15.71;77.29;92133.13;570377;26;960;-72
2024/04/17 00:05:29;;;;;;;5.05;4.10;;;;;;;15.71;77.25;92130.34;570537;26;905;-72
2024/04/17 00:05:44;;;;;;;5.10;4.00;;;;;;;15.70;76.96;92134.47;570491;26;820;-72
2024/04/17 00:06:00;;;;;;;4.67;3.90;;;;;;;15.70;77.27;92137.25;570515;26;854;-72
2024/04/17 00:06:15;;;;;;;4.95;3.88;;;;;;;15.71;76.95;92133.13;570373;26;864;-71
2024/04/17 00:06:31;;;;;;;5.90;3.80;;;;;;;15.71;76.90;92138.69;566436;26;846;-71
2024/04/17 00:06:46;;;;;;;7.25;3.70;;;;;;;15.71;76.95;92138.69;566472;26;1011;-71
2024/04/17 00:07:02;;;;;;;7.80;3.70;;;;;;;15.68;76.82;92140.63;566417;26;1012;-72
2024/04/17 00:07:17;;;;;;;6.38;3.92;;;;;;;15.51;76.51;92107.72;566423;26;941;-72
2024/04/17 00:07:33;;;;;;;6.10;4.07;;;;;;;15.68;76.75;92131.59;566508;26;770;-71
2024/04/17 00:07:48;;;;;;;7.53;4.13;;;;;;;15.67;76.70;92130.84;566331;26;885;-71
2024/04/17 00:08:04;;;;;;;7.47;4.27;;;;;;;15.66;76.74;92132.19;566459;26;879;-71
2024/04/17 00:08:20;;;;;;;8.57;4.03;;;;;;;15.65;76.89;92130.75;567235;26;965;-72
2024/04/17 00:08:35;;;;;;;8.57;3.90;;;;;;;15.62;77.04;92140.31;570378;26;798;-72
2024/04/17 00:08:50;;;;;;;8.07;3.90;;;;;;;15.60;77.17;92133.91;570436;26;915;-71
2024/04/17 00:09:06;;;;;;;6.90;3.90;;;;;;;15.59;76.97;92138.75;570335;26;842;-71
2024/04/17 00:09:21;;;;;;;5.30;3.88;;;;;;;15.58;77.34;92137.31;570428;26;1016;-72
2024/04/17 00:09:37;;;;;;;5.40;4.00;;;;;;;15.57;77.27;92140.72;570518;26;825;-71
2024/04/17 00:09:52;;;;;;;6.37;4.10;;;;;;;15.56;77.17;92139.25;570494;26;860;-72
2024/04/17 00:10:08;;;;;;;7.03;3.92;;;;;;;15.57;77.29;92140.72;570484;26;837;-72
2024/04/17 00:10:23;;;;;;;6.23;4.07;;;;;;;15.56;77.25;92140.00;570456;26;809;-72
2024/04/17 00:10:41;;;;;;;7.03;4.15;;;;;;;15.55;77.35;92140.59;570416;26;1281;-72
2024/04/17 00:10:56;;;;;;;5.82;3.63;;;;;;;15.55;77.62;92140.59;570301;26;960;-72
2024/04/17 00:11:11;;;;;;;5.18;3.38;;;;;;;15.54;77.66;92139.16;570472;26;791;-72
2024/04/17 00:11:27;;;;;;;5.87;3.37;;;;;;;15.36;77.48;92116.59;570468;26;774;-71
2024/04/17 00:11:42;;;;;;;5.67;3.70;;;;;;;15.51;77.65;92132.75;570441;26;795;-72
2024/04/17 00:11:58;;;;;;;5.85;3.60;;;;;;;15.48;77.49;92128.44;570288;26;798;-72
2024/04/17 00:12:13;;;;;;;6.57;3.33;;;;;;;15.48;77.61;92127.69;570337;26;830;-71
2024/04/17 00:12:29;;;;;;;7.60;3.70;;;;;;;15.45;77.70;92128.91;570383;26;888;-71
2024/04/17 00:12:44;;;;;;;6.43;3.90;;;;;;;15.43;77.67;92126.00;570596;26;794;-71
2024/04/17 00:13:00;;;;;;;5.80;3.75;;;;;;;15.40;77.87;92125.16;570499;26;794;-72
2024/04/17 00:13:15;;;;;;;6.73;3.73;;;;;;;15.40;77.77;92125.16;570344;26;811;-72
2024/04/17 00:13:31;;;;;;;6.40;3.87;;;;;;;15.38;77.75;92121.53;570463;26;850;-72
2024/04/17 00:13:47;;;;;;;5.38;3.88;;;;;;;15.35;77.93;92126.28;570440;26;858;-72
2024/04/17 00:14:02;;;;;;;5.83;3.70;;;;;;;15.34;77.77;92124.09;570457;26;923;-72
2024/04/17 00:14:18;;;;;;;7.37;3.70;;;;;;;15.33;78.08;92128.22;570358;26;801;-72
2024/04/17 00:14:34;;;;;;;7.43;3.70;;;;;;;15.34;78.04;92126.88;570285;26;936;-72
2024/04/17 00:14:50;;;;;;;5.22;3.70;;;;;;;15.34;77.81;92124.09;570487;26;845;-71
2024/04/17 00:15:05;;;;;;;5.28;4.03;;;;;;;15.33;77.95;92131.00;570271;26;909;-71
2024/04/17 00:15:21;;;;;;;6.43;4.20;;;;;;;15.32;77.79;92127.50;570273;26;1873;-71
2024/04/17 00:15:36;;;;;;;6.90;4.10;;;;;;;15.31;77.97;92130.91;570419;26;833;-71
2024/04/17 00:15:51;;;;;;;6.10;4.07;;;;;;;15.30;77.73;92127.38;570365;26;778;-71
2024/04/17 00:16:07;;;;;;;5.03;3.75;;;;;;;15.29;77.61;92128.00;570283;26;1063;-72
2024/04/17 00:16:23;;;;;;;6.23;3.77;;;;;;;15.28;77.69;92126.56;570374;26;1588;-71
2024/04/17 00:16:38;;;;;;;5.57;3.45;;;;;;;15.29;77.57;92128.00;570344;26;969;-72
2024/04/17 00:16:54;;;;;;;4.90;3.40;;;;;;;15.30;77.72;92135.00;570431;26;782;-72
2024/04/17 00:17:09;;;;;;;5.05;3.42;;;;;;;15.31;77.56;92128.13;570360;26;869;-72
2024/04/17 00:17:24;;;;;;;5.10;3.40;;;;;;;15.32;77.50;92137.88;570255;26;1070;-71
2024/04/17 00:17:40;;;;;;;6.20;3.53;;;;;;;15.31;77.51;92128.81;570384;26;988;-71
2024/04/17 00:17:55;;;;;;;7.72;3.80;;;;;;;15.33;77.36;92134.53;570223;26;939;-71
2024/04/17 00:18:11;;;;;;;6.67;3.93;;;;;;;15.33;77.38;92131.75;570136;26;1058;-72
2024/04/17 00:18:26;;;;;;;5.22;3.83;;;;;;;15.32;77.20;92135.84;570198;26;825;-71
2024/04/17 00:18:42;;;;;;;5.23;3.73;;;;;;;15.33;77.19;92136.56;570070;26;817;-72
2024/04/17 00:18:57;;;;;;;5.28;3.47;;;;;;;15.33;77.25;92137.31;570092;26;885;-72
2024/04/17 00:19:13;;;;;;;6.10;3.73;;;;;;;15.35;77.09;92136.69;570104;26;830;-72
2024/04/17 00:19:28;;;;;;;6.03;3.87;;;;;;;15.35;77.21;92136.69;570188;26;912;-72
2024/04/17 00:19:43;;;;;;;6.13;3.72;;;;;;;15.36;76.98;92140.88;570102;26;871;-71
2024/04/17 00:19:59;;;;;;;6.90;3.50;;;;;;;15.37;76.94;92145.88;570219;26;783;-72
2024/04/17 00:20:14;;;;;;;6.82;3.40;;;;;;;15.37;77.14;92140.31;569904;26;960;-72
2024/04/17 00:20:30;;;;;;;5.73;3.43;;;;;;;15.38;77.05;92138.22;570145;26;870;-71
2024/04/17 00:20:45;;;;;;;4.90;3.42;;;;;;;15.39;76.98;92136.91;570210;26;984;-72
2024/04/17 00:21:01;;;;;;;6.03;3.50;;;;;;;15.39;76.86;92136.91;570225;26;837;-71
2024/04/17 00:21:16;;;;;;;5.37;3.70;;;;;;;15.38;77.05;92129.88;570463;26;909;-72
2024/04/17 00:21:32;;;;;;;6.13;4.05;;;;;;;15.39;76.87;92136.91;570340;26;917;-71
2024/04/17 00:21:47;;;;;;;6.13;3.83;;;;;;;15.39;77.04;92139.69;570525;26;806;-71
2024/04/17 00:22:03;;;;;;;5.80;3.85;;;;;;;15.38;77.12;92129.88;570151;26;1390;-72
2024/04/17 00:22:19;;;;;;;6.70;4.10;;;;;;;15.39;76.88;92132.06;570377;26;857;-71
2024/04/17 00:22:34;;;;;;;7.00;4.25;;;;;;;15.39;76.99;92139.69;570350;26;915;-71
2024/04/17 00:22:50;;;;;;;7.80;4.18;;;;;;;15.39;76.80;92132.06;570410;26;849;-71
2024/04/17 00:23:05;;;;;;;6.90;3.87;;;;;;;15.38;76.77;92129.88;570266;26;940;-71
2024/04/17 00:23:21;;;;;;;7.20;3.83;;;;;;;15.34;76.81;92129.66;570463;26;822;-72
2024/04/17 00:23:36;;;;;;;7.30;3.73;;;;;;;15.33;76.84;92139.34;570435;26;770;-71
2024/04/17 00:23:52;;;;;;;6.33;3.70;;;;;;;15.33;77.02;92133.78;570434;26;1002;-71
2024/04/17 00:24:07;;;;;;;5.07;3.70;;;;;;;15.32;76.84;92127.50;570523;26;838;-71
2024/04/17 00:24:23;;;;;;;5.65;3.75;;;;;;;15.32;76.91;92129.56;570098;26;920;-71
2024/04/17 00:24:38;;;;;;;6.90;3.57;;;;;;;15.25;76.96;92124.97;570442;26;940;-71
2024/04/17 00:24:54;;;;;;;7.60;3.65;;;;;;;15.29;77.07;92125.22;570353;26;951;-71
2024/04/17 00:25:09;;;;;;;7.53;4.10;;;;;;;15.29;77.00;92122.44;570361;26;809;-72
2024/04/17 00:25:25;;;;;;;7.83;4.07;;;;;;;15.29;77.08;92130.78;570392;26;833;-71
2024/04/17 00:25:40;;;;;;;6.60;3.58;;;;;;;15.30;76.76;92126.66;570342;26;869;-71
2024/04/17 00:25:56;;;;;;;5.50;3.60;;;;;;;15.30;76.59;92130.16;570334;26;940;-72
2024/04/17 00:26:11;;;;;;;6.45;3.80;;;;;;;15.31;76.59;92130.91;570519;26;916;-71
2024/04/17 00:26:26;;;;;;;6.03;3.30;;;;;;;15.30;76.62;92130.16;570444;26;778;-71
2024/04/17 00:26:42;;;;;;;6.80;3.50;;;;;;;15.32;76.64;92130.28;570519;26;837;-72
2024/04/17 00:26:57;;;;;;;7.30;4.03;;;;;;;15.32;76.65;92138.63;570279;26;1013;-71
2024/04/17 00:27:13;;;;;;;5.73;3.67;;;;;;;15.33;76.53;92131.00;570268;26;1082;-72
2024/04/17 00:27:28;;;;;;;6.57;3.20;;;;;;;15.33;76.41;92131.75;570362;26;956;-71
2024/04/17 00:27:44;;;;;;;6.90;3.70;;;;;;;15.34;76.65;92138.00;570526;26;883;-72
2024/04/17 00:27:59;;;;;;;6.60;3.90;;;;;;;15.30;76.62;92130.16;570423;26;963;-72
2024/04/17 00:28:14;;;;;;;5.40;3.47;;;;;;;15.34;76.55;92135.22;570187;26;801;-72
2024/04/17 00:28:31;;;;;;;7.37;3.87;;;;;;;15.18;76.88;92107.97;570020;26;869;-72
2024/04/17 00:28:46;;;;;;;7.13;3.85;;;;;;;15.29;76.83;92130.78;570232;26;865;-72
2024/04/17 00:29:01;;;;;;;7.05;3.85;;;;;;;15.24;76.79;92131.88;569957;26;1076;-72
2024/04/17 00:29:17;;;;;;;7.33;3.93;;;;;;;15.18;77.07;92129.50;570099;26;828;-72
2024/04/17 00:29:32;;;;;;;5.32;3.65;;;;;;;15.07;76.91;92125.41;570171;26;817;-73
2024/04/17 00:29:48;;;;;;;6.23;4.07;;;;;;;14.98;77.31;92122.81;569982;26;813;-72
2024/04/17 00:30:03;;;;;;;5.97;3.93;;;;;;;14.94;77.80;92117.72;570023;26;924;-72
2024/04/17 00:30:19;;;;;;;4.95;3.58;;;;;;;14.81;77.97;92121.16;570140;26;834;-72
2024/04/17 00:30:34;;;;;;;4.78;3.70;;;;;;;14.61;78.20;92099.84;570091;26;829;-72
2024/04/17 00:30:50;;;;;;;4.30;3.63;;;;;;;14.72;78.36;92124.09;570147;26;798;-72
2024/04/17 00:31:06;;;;;;;5.40;3.87;;;;;;;14.67;78.23;92123.13;570119;26;821;-72
2024/04/17 00:31:21;;;;;;;6.93;4.00;;;;;;;14.63;78.46;92117.34;570375;26;915;-72
2024/04/17 00:31:37;;;;;;;7.47;4.13;;;;;;;14.61;78.64;92114.44;570321;26;912;-72
2024/04/17 00:31:52;;;;;;;6.93;4.00;;;;;;;14.60;78.88;92121.31;570495;26;849;-72
2024/04/17 00:32:08;;;;;;;6.55;4.03;;;;;;;14.60;78.93;92110.22;570368;26;994;-72
2024/04/17 00:32:23;;;;;;;6.67;4.33;;;;;;;14.40;79.10;92090.34;570403;26;837;-72
2024/04/17 00:32:39;;;;;;;6.07;4.10;;;;;;;14.64;79.13;92118.06;570331;26;837;-72
2024/04/17 00:32:54;;;;;;;6.63;3.73;;;;;;;14.64;78.95;92129.88;570421;26;928;-72
2024/04/17 00:33:09;;;;;;;6.13;3.70;;;;;;;14.67;79.31;92127.97;570511;26;1176;-72
2024/04/17 00:33:25;;;;;;;4.38;3.60;;;;;;;14.68;79.04;92130.16;570447;26;857;-71
2024/04/17 00:33:41;;;;;;;4.93;3.75;;;;;;;14.70;78.94;92130.25;570415;26;845;-72
2024/04/17 00:33:57;;;;;;;6.90;4.23;;;;;;;14.72;79.07;92129.66;570302;26;845;-72
2024/04/17 00:34:13;;;;;;;7.38;4.45;;;;;;;14.74;78.91;92132.53;570288;26;1156;-72
2024/04/17 00:34:28;;;;;;;6.00;4.37;;;;;;;14.77;78.96;92136.88;570400;26;829;-72
2024/04/17 00:34:44;;;;;;;5.05;4.10;;;;;;;14.78;78.75;92130.72;570485;26;842;-71
2024/04/17 00:34:59;;;;;;;4.93;3.80;;;;;;;14.79;79.00;92134.94;570398;26;915;-72
2024/04/17 00:35:15;;;;;;;5.10;3.73;;;;;;;14.80;79.01;92119.72;570430;26;889;-72
2024/04/17 00:35:30;;;;;;;4.95;4.00;;;;;;;14.82;78.88;92128.16;570182;26;1829;-71
2024/04/17 00:35:46;;;;;;;6.82;3.95;;;;;;;14.83;78.88;92123.34;570307;26;894;-72
2024/04/17 00:36:01;;;;;;;7.93;3.63;;;;;;;14.80;78.82;92130.09;570383;26;884;-71
2024/04/17 00:36:17;;;;;;;7.78;3.72;;;;;;;14.76;79.13;92113.94;570438;26;806;-72
2024/04/17 00:36:32;;;;;;;7.90;4.20;;;;;;;14.70;79.36;92119.16;570386;26;920;-72
2024/04/17 00:36:48;;;;;;;8.20;4.27;;;;;;;14.66;79.56;92121.66;570340;26;810;-72
2024/04/17 00:37:03;;;;;;;7.43;4.05;;;;;;;14.63;79.63;92116.63;570403;26;829;-72
2024/04/17 00:37:19;;;;;;;5.93;3.88;;;;;;;14.61;79.75;92117.22;570140;26;981;-71
2024/04/17 00:37:34;;;;;;;7.03;4.03;;;;;;;14.60;79.85;92123.38;570511;26;935;-72
2024/04/17 00:37:50;;;;;;;7.27;4.43;;;;;;;14.58;79.75;92126.78;570490;26;940;-71
2024/04/17 00:38:05;;;;;;;6.82;4.45;;;;;;;14.57;79.73;92125.34;570250;26;1012;-72
2024/04/17 00:38:21;;;;;;;6.60;4.20;;;;;;;14.57;79.83;92124.59;570372;26;832;-72
2024/04/17 00:38:36;;;;;;;5.68;4.10;;;;;;;14.60;79.82;92124.09;570329;26;818;-72
2024/04/17 00:38:52;;;;;;;7.17;4.20;;;;;;;14.61;79.69;92127.63;570460;26;782;-71
2024/04/17 00:39:07;;;;;;;7.53;4.10;;;;;;;14.62;79.57;92132.56;566310;26;795;-72
2024/04/17 00:39:22;;;;;;;5.53;3.92;;;;;;;14.65;79.63;92127.84;566351;26;921;-72
2024/04/17 00:39:38;;;;;;;7.60;4.10;;;;;;;14.67;79.67;92128.69;566385;26;798;-71
2024/04/17 00:39:53;;;;;;;8.77;4.20;;;;;;;14.67;79.67;92128.69;566427;26;837;-72
2024/04/17 00:40:09;;;;;;;7.27;4.23;;;;;;;14.67;79.58;92119.63;566386;26;968;-72
2024/04/17 00:40:24;;;;;;;6.78;4.10;;;;;;;14.66;79.58;92124.44;566402;26;919;-72
2024/04/17 00:40:40;;;;;;;5.97;4.03;;;;;;;14.64;79.85;92118.06;566478;26;799;-72
2024/04/17 00:40:56;;;;;;;7.05;4.30;;;;;;;14.58;80.05;92121.22;566872;26;802;-72
2024/04/17 00:41:12;;;;;;;6.82;4.50;;;;;;;14.54;79.98;92107.09;570372;26;849;-72
2024/04/17 00:41:27;;;;;;;6.90;4.57;;;;;;;14.51;80.23;92113.84;570283;26;838;-72
2024/04/17 00:41:43;;;;;;;7.50;4.45;;;;;;;14.47;80.25;92110.13;570402;26;924;-72
2024/04/17 00:41:58;;;;;;;6.23;4.43;;;;;;;14.43;80.73;92116.91;570446;26;910;-72
2024/04/17 00:42:13;;;;;;;5.93;4.45;;;;;;;14.45;80.62;92119.06;570173;26;1173;-72
2024/04/17 00:42:29;;;;;;;5.17;4.20;;;;;;;14.45;80.87;92113.50;570294;26;787;-72
2024/04/17 00:42:44;;;;;;;4.50;3.77;;;;;;;14.48;80.87;92117.13;570452;26;801;-71
2024/04/17 00:43:00;;;;;;;6.63;3.83;;;;;;;14.50;80.54;92122.81;570512;26;850;-72
2024/04/17 00:43:15;;;;;;;7.53;4.17;;;;;;;14.51;80.67;92124.97;570443;26;1034;-71
2024/04/17 00:43:31;;;;;;;6.45;4.20;;;;;;;14.54;80.58;92125.81;570289;26;917;-71
2024/04/17 00:43:46;;;;;;;7.90;4.40;;;;;;;14.55;80.75;92119.66;570232;26;782;-72
2024/04/17 00:44:02;;;;;;;7.28;4.50;;;;;;;14.59;80.39;92121.94;570404;26;880;-71
2024/04/17 00:44:17;;;;;;;6.23;4.30;;;;;;;14.60;80.50;92115.78;570265;26;876;-71
2024/04/17 00:44:33;;;;;;;6.85;4.18;;;;;;;14.61;80.66;92117.22;570422;26;854;-72
2024/04/17 00:44:48;;;;;;;6.27;3.97;;;;;;;14.60;81.04;92118.56;570315;26;1411;-72
2024/04/17 00:45:04;;;;;;;6.60;4.17;;;;;;;14.63;80.89;92117.34;570165;26;1098;-72
2024/04/17 00:45:19;;;;;;;5.70;4.30;;;;;;;14.65;80.69;92113.94;570386;26;848;-72
2024/04/17 00:45:44;;;;;;;5.00;4.50;;;;;;;14.64;80.70;92109.75;566258;26;2431;-72
2024/04/17 00:46:00;;;;;;;6.38;4.55;;;;;;;14.61;80.61;92102.63;566379;26;925;-72
2024/04/17 00:46:15;;;;;;;8.63;4.40;;;;;;;14.60;81.03;92104.66;566462;26;838;-72
2024/04/17 00:46:31;;;;;;;9.93;4.50;;;;;;;14.61;80.76;92110.94;566321;26;853;-72
2024/04/17 00:46:46;;;;;;;8.07;4.40;;;;;;;14.56;80.94;92098.88;566445;26;870;-72
2024/04/17 00:47:02;;;;;;;6.87;4.37;;;;;;;14.62;80.63;92102.00;562737;26;1092;-72
2024/04/17 00:47:18;;;;;;;8.45;4.68;;;;;;;14.64;80.84;92101.41;562589;26;956;-72
2024/04/17 00:47:33;;;;;;;7.60;4.45;;;;;;;14.64;80.47;92101.41;565767;26;806;-72
2024/04/17 00:47:49;;;;;;;7.17;4.43;;;;;;;14.57;80.71;92097.56;566442;26;854;-72
2024/04/17 00:48:07;;;;;;;6.45;4.20;;;;;;;14.67;80.54;92105.72;566281;26;1639;-72
2024/04/17 00:48:23;;;;;;;6.97;4.22;;;;;;;14.67;80.20;92106.47;566375;26;956;-72
2024/04/17 00:48:38;;;;;;;6.32;4.45;;;;;;;14.69;79.92;92106.56;566527;26;806;-72
2024/04/17 00:48:54;;;;;;;7.53;4.33;;;;;;;14.70;79.91;92105.25;568164;26;822;-72
2024/04/17 00:49:10;;;;;;;8.27;4.35;;;;;;;14.71;79.83;92108.75;570362;26;872;-72
2024/04/17 00:49:26;;;;;;;8.27;4.20;;;;;;;14.72;79.71;92101.88;570519;26;988;-71
2024/04/17 00:49:42;;;;;;;7.55;4.20;;;;;;;14.72;79.66;92101.88;566560;26;988;-72
2024/04/17 00:49:57;;;;;;;6.85;4.20;;;;;;;14.69;79.90;92103.06;566500;26;897;-72
2024/04/17 00:50:13;;;;;;;7.83;4.00;;;;;;;14.68;79.88;92098.84;566496;26;850;-72
2024/04/17 00:50:28;;;;;;;7.05;4.25;;;;;;;14.68;80.09;92107.91;566472;26;951;-72
2024/04/17 00:50:46;;;;;;;4.97;4.20;;;;;;;14.69;80.06;92100.28;566251;26;908;-73
2024/04/17 00:51:01;;;;;;;5.63;4.13;;;;;;;14.70;80.23;92110.81;566395;26;931;-71
2024/04/17 00:51:17;;;;;;;6.67;4.20;;;;;;;14.69;80.03;92103.78;566418;26;896;-72
2024/04/17 00:51:33;;;;;;;5.43;4.25;;;;;;;14.72;79.98;92108.16;564049;26;941;-72
2024/04/17 00:51:49;;;;;;;4.90;4.15;;;;;;;14.73;80.15;92104.03;566772;26;1016;-71
2024/04/17 00:52:05;;;;;;;6.80;4.13;;;;;;;14.75;79.85;92106.91;566531;26;1039;-72
2024/04/17 00:52:20;;;;;;;7.75;4.45;;;;;;;14.76;79.75;92100.03;562928;26;883;-72
2024/04/17 00:52:36;;;;;;;5.37;4.30;;;;;;;14.77;79.43;92089.66;562894;26;787;-72
2024/04/17 00:52:52;;;;;;;6.07;4.18;;;;;;;14.74;78.99;92088.09;562941;26;1011;-72
2024/04/17 00:53:09;;;;;;;7.07;4.00;;;;;;;14.66;79.07;92093.88;563015;26;858;-72
2024/04/17 00:53:27;;;;;;;7.03;3.90;;;;;;;14.54;79.25;92082.09;562964;26;861;-71
2024/04/17 00:53:42;;;;;;;8.20;4.53;;;;;;;14.42;79.56;92090.44;563045;26;870;-71
2024/04/17 00:53:58;;;;;;;5.93;4.45;;;;;;;14.37;80.05;92079.72;563002;26;838;-71
2024/04/17 00:54:13;;;;;;;4.87;4.30;;;;;;;14.29;80.46;92079.97;564594;26;967;-71
2024/04/17 00:54:29;;;;;;;5.65;4.18;;;;;;;14.23;80.39;92081.63;563018;26;918;-71
2024/04/17 00:54:45;;;;;;;6.37;4.57;;;;;;;14.17;80.78;92084.78;562712;26;885;-71
2024/04/17 00:55:02;;;;;;;6.47;4.65;;;;;;;14.15;81.14;92086.72;564709;26;934;-71
2024/04/17 00:55:18;;;;;;;7.35;4.30;;;;;;;14.14;81.26;92080.44;562862;26;846;-71
2024/04/17 00:55:35;;;;;;;7.00;4.40;;;;;;;14.16;81.24;92086.09;559243;26;1838;-72
2024/04/17 00:55:50;;;;;;;5.55;4.50;;;;;;;14.19;81.22;92086.94;555581;26;957;-71
2024/04/17 00:56:06;;;;;;;6.85;4.60;;;;;;;14.23;81.12;92089.97;551770;26;1417;-71
2024/04/17 00:56:22;;;;;;;6.93;4.47;;;;;;;14.25;81.38;92090.81;553663;26;823;-71
2024/04/17 00:56:37;;;;;;;6.15;4.50;;;;;;;14.29;81.00;92090.38;555382;26;875;-71
2024/04/17 00:56:54;;;;;;;6.78;4.30;;;;;;;14.32;81.49;92097.47;555304;26;839;-71
2024/04/17 00:57:11;;;;;;;6.22;3.97;;;;;;;14.33;81.28;92087.81;556972;26;874;-71
2024/04/17 00:57:27;;;;;;;5.38;4.10;;;;;;;14.20;81.00;92069.72;560621;26;901;-71
2024/04/17 00:57:43;;;;;;;5.43;4.22;;;;;;;14.38;81.04;92095.03;564494;26;846;-71
2024/04/17 00:58:00;;;;;;;6.28;4.15;;;;;;;14.42;81.07;92084.19;568282;26;909;-71
2024/04/17 00:58:17;;;;;;;6.70;4.05;;;;;;;14.44;80.85;92087.09;566434;26;901;-71
2024/04/17 00:58:34;;;;;;;5.05;4.00;;;;;;;14.47;80.73;92096.25;562732;26;946;-71
2024/04/17 00:58:49;;;;;;;5.78;4.07;;;;;;;14.49;80.58;92088.03;562711;26;885;-71
2024/04/17 00:59:05;;;;;;;6.03;4.40;;;;;;;14.53;80.61;92096.59;562549;26;917;-71
2024/04/17 00:59:21;;;;;;;6.78;4.35;;;;;;;14.54;80.93;92087.66;562703;26;834;-72
2024/04/17 00:59:37;;;;;;;9.15;4.32;;;;;;;14.56;80.64;92081.47;562626;26;961;-71
2024/04/17 00:59:52;;;;;;;8.68;4.15;;;;;;;14.59;80.85;92083.78;562717;26;874;-71
2024/04/17 01:00:08;;;;;;;8.20;4.20;;;;;;;14.60;80.60;92079.66;560732;26;814;-71
2024/04/17 01:00:24;;;;;;;10.68;4.75;;;;;;;14.62;80.56;92081.84;560100;26;877;-71
2024/04/17 01:00:39;;;;;;;16.60;5.65;;;;;;;14.63;80.76;92086.78;562769;26;878;-71
2024/04/17 01:00:55;;;;;;;18.97;6.07;;;;;;;14.64;80.58;92084.75;562689;26;826;-71
2024/04/17 01:01:10;;;;;;;15.00;5.22;;;;;;;14.66;80.43;92082.06;562683;26;890;-71
2024/04/17 01:01:26;;;;;;;12.57;4.70;;;;;;;14.68;80.45;92085.69;562719;26;961;-71
2024/04/17 01:01:41;;;;;;;9.40;4.35;;;;;;;14.69;80.56;92081.56;562643;26;861;-71
2024/04/17 01:01:57;;;;;;;7.03;4.17;;;;;;;14.70;80.46;92080.25;563527;26;791;-71
2024/04/17 01:02:12;;;;;;;5.77;4.17;;;;;;;14.72;80.26;92074.09;567146;26;942;-71
2024/04/17 01:02:28;;;;;;;9.35;4.32;;;;;;;14.74;80.39;92085.31;570475;26;802;-71
2024/04/17 01:02:43;;;;;;;10.30;4.55;;;;;;;14.75;80.39;92078.44;570360;26;833;-71
2024/04/17 01:02:59;;;;;;;6.53;4.20;;;;;;;14.74;80.11;92074.19;570388;26;952;-71
2024/04/17 01:03:14;;;;;;;6.40;3.97;;;;;;;14.74;80.01;92080.47;570319;26;838;-71
2024/04/17 01:03:30;;;;;;;7.00;4.00;;;;;;;14.75;79.64;92084.00;570517;26;943;-71
2024/04/17 01:03:45;;;;;;;8.65;4.22;;;;;;;14.76;79.67;92077.09;570402;26;876;-71
2024/04/17 01:04:01;;;;;;;7.33;4.10;;;;;;;14.77;79.35;92078.53;570375;26;1004;-71
2024/04/17 01:04:16;;;;;;;6.18;4.20;;;;;;;14.78;79.63;92079.97;570372;26;861;-71
2024/04/17 01:04:32;;;;;;;6.73;4.30;;;;;;;14.78;79.31;92083.47;570355;26;785;-71
2024/04/17 01:04:47;;;;;;;7.43;4.30;;;;;;;14.79;79.08;92084.22;570445;26;853;-71
2024/04/17 01:05:03;;;;;;;6.75;4.10;;;;;;;14.80;78.87;92080.09;570480;26;932;-71
2024/04/17 01:05:18;;;;;;;6.43;4.00;;;;;;;14.80;79.17;92080.81;570677;26;841;-71
2024/04/17 01:05:34;;;;;;;5.65;4.00;;;;;;;14.81;78.84;92078.78;570818;26;942;-71
2024/04/17 01:05:50;;;;;;;6.07;3.80;;;;;;;14.82;78.78;92086.47;570660;26;956;-71
2024/04/17 01:06:05;;;;;;;6.70;3.70;;;;;;;14.83;78.77;92090.00;570731;26;850;-71
2024/04/17 01:06:21;;;;;;;5.15;3.85;;;;;;;14.83;78.23;92081.66;570760;26;853;-71
2024/04/17 01:06:36;;;;;;;5.67;4.00;;;;;;;14.82;78.70;92080.94;570618;26;873;-71
2024/04/17 01:06:52;;;;;;;6.05;4.00;;;;;;;14.83;78.55;92079.59;570825;26;826;-71
2024/04/17 01:07:07;;;;;;;5.90;3.83;;;;;;;14.84;78.76;92086.59;570628;26;857;-71
2024/04/17 01:07:23;;;;;;;5.30;3.63;;;;;;;14.85;78.74;92088.06;570591;26;911;-71
2024/04/17 01:07:38;;;;;;;6.07;4.05;;;;;;;14.86;78.82;92083.94;570750;26;798;-71
2024/04/17 01:07:54;;;;;;;7.93;4.63;;;;;;;14.88;78.62;92086.81;566668;26;908;-71
2024/04/17 01:08:10;;;;;;;7.88;4.30;;;;;;;14.89;78.65;92082.72;566737;26;822;-71
2024/04/17 01:08:25;;;;;;;6.80;3.97;;;;;;;14.91;78.79;92082.09;566742;26;944;-71
2024/04/17 01:08:41;;;;;;;6.17;3.93;;;;;;;14.92;78.57;92087.03;566647;26;790;-71
2024/04/17 01:08:56;;;;;;;6.22;4.00;;;;;;;14.93;78.62;92082.22;566629;26;923;-71
2024/04/17 01:09:12;;;;;;;6.30;4.07;;;;;;;14.93;78.54;92077.38;566809;26;969;-71
2024/04/17 01:09:27;;;;;;;6.30;4.30;;;;;;;14.94;78.74;92078.81;566665;26;1023;-71
2024/04/17 01:09:42;;;;;;;6.53;4.27;;;;;;;14.96;78.44;92081.00;567512;26;810;-71
2024/04/17 01:09:58;;;;;;;8.93;4.05;;;;;;;14.96;78.59;92081.75;570499;26;913;-71
2024/04/17 01:10:13;;;;;;;9.00;4.23;;;;;;;14.97;78.42;92077.59;570452;26;829;-71
2024/04/17 01:10:29;;;;;;;7.33;4.20;;;;;;;14.98;78.04;92070.00;570402;26;900;-71
2024/04/17 01:10:44;;;;;;;8.07;4.07;;;;;;;14.99;78.05;92069.38;570273;26;1167;-71
2024/04/17 01:11:01;;;;;;;7.30;3.87;;;;;;;14.99;77.72;92074.22;570581;26;849;-71
2024/04/17 01:11:16;;;;;;;6.03;3.70;;;;;;;14.99;77.84;92077.72;570383;26;897;-71
2024/04/17 01:11:40;;;;;;;7.07;3.97;;;;;;;14.96;77.70;92075.44;570388;26;774;-71
2024/04/17 01:11:56;;;;;;;6.93;4.57;;;;;;;14.95;77.83;92071.94;570384;26;932;-71
2024/04/17 01:12:11;;;;;;;4.93;3.65;;;;;;;14.94;77.57;92067.69;570387;26;913;-71
2024/04/17 01:12:27;;;;;;;4.17;3.27;;;;;;;14.95;77.63;92071.94;570420;26;809;-71
2024/04/17 01:12:42;;;;;;;4.93;3.77;;;;;;;14.95;77.78;92074.00;570430;26;873;-71
2024/04/17 01:12:57;;;;;;;8.32;4.20;;;;;;;14.95;77.97;92066.38;570338;26;854;-71
2024/04/17 01:13:13;;;;;;;10.40;4.23;;;;;;;14.97;77.61;92068.53;570468;26;781;-71
2024/04/17 01:13:29;;;;;;;7.57;3.85;;;;;;;14.97;77.46;92068.53;570378;26;881;-71
2024/04/17 01:13:44;;;;;;;6.28;3.85;;;;;;;14.98;77.74;92067.22;570449;26;882;-71
2024/04/17 01:14:00;;;;;;;6.97;3.80;;;;;;;14.98;77.66;92070.72;570454;26;814;-71
2024/04/17 01:14:15;;;;;;;7.13;3.83;;;;;;;14.99;77.53;92065.88;570399;26;952;-71
2024/04/17 01:14:31;;;;;;;6.57;4.18;;;;;;;14.98;77.68;92065.16;570769;26;774;-72
2024/04/17 01:14:46;;;;;;;5.50;4.07;;;;;;;14.98;77.58;92061.66;570647;26;885;-71
2024/04/17 01:15:09;;;;;;;7.35;4.10;;;;;;;15.00;77.46;92067.34;570816;26;940;-71
2024/04/17 01:15:24;;;;;;;8.15;4.28;;;;;;;14.99;77.42;92058.25;570580;26;1876;-71
2024/04/17 01:15:39;;;;;;;6.57;4.13;;;;;;;14.99;77.58;92060.31;570622;26;897;-71
2024/04/17 01:15:56;;;;;;;4.88;3.80;;;;;;;14.98;77.58;92062.38;570698;26;849;-71
2024/04/17 01:16:11;;;;;;;5.17;3.90;;;;;;;14.99;77.99;92063.09;566872;26;842;-71
2024/04/17 01:16:27;;;;;;;5.78;3.88;;;;;;;15.00;77.76;92065.28;566637;26;927;-71